West Pittston, Pennsylvania
Current Conditions -  °F | °C
As of 7:54 PM on Tuesday 21 Oct 2014 (Local Time) from KAVP Reporting Station
Light Rain Light Rain  
Wind Chill: 54°   Ceiling: 5000
Heat Index: 54°   Visibility: 10mi
Dew Point: 50°   Wind: 0mph
Humidity: 86%   Direction: NA
Pressure: 29.9"   Gusts: NA
Location:  41.3688°N, 75.837°W
Report Text: KAVP 212354Z 00000KT 10SM -RA OVC050 12/10 A2990 RMK AO2 SLP123 P0001 60002 T01220100 10156 20122 53014
Loading
Personal Weather Stations






























Interactive Weather Map
Tropical Storm Tracking
New forecast layout! Learn more

10-Day Weather Forecast

Advertisements
Track Severe Weather on mobile